Earlton, NY (12058)

4:34 PM EDT on March 30, 2015 (GMT -0400)
KNYFREEH2 | | Change Station
CLOSE
Current Station
Personal Weather Station
Location: Freehold, NY
Elevation: 587 ft
Nearby Weather Stations

Elev 587 ft 42.36 °N, 74.04 °W | Updated 3 seconds ago

Overcast
Overcast
43.8 °F
Feels Like 44 °F
N
3.0
Wind Variable Wind from WNW
Gusts 7.0 mph

Today
High -- | Low -- °F
--% Chance of Precip.
Yesterday
High -- | Low -- °F
Precip. -- in
6:42 AM 7:18 PM
Waxing Gibbous, 82% visible
Pressure 29.73 in
Visibility 10.0 miles
Clouds Mostly Cloudy 4600 ft
Overcast 5500 ft
Windchill 44 °F
Dew Point 31 °F
Humidity 61%
Rainfall 0.00 in
Snow Depth Not available.
UV 1 out of 12
Pollen 3.20 out of 12
Air Quality Not available.
Flu Activity Not available.
METAR KALB 301951Z 26016G22KT 10SM BKN046 OVC055 07/M03 A2973 RMK AO2 RAB02E17 SLP068 P0000 T00671033

More Conditions Fewer Conditions

Pressure 29.73 in
Visibility 10.0 miles
Clouds Mostly Cloudy 4600 ft
Overcast 5500 ft
Windchill 44 °F
Dew Point 31 °F
Humidity 61%
Rainfall 0.00 in
Snow Depth Not available.
UV 1 out of 12
Pollen 3.20 out of 12
Air Quality Not available.
Flu Activity Not available.
METAR KALB 301951Z 26016G22KT 10SM BKN046 OVC055 07/M03 A2973 RMK AO2 RAB02E17 SLP068 P0000 T00671033

More Conditions Fewer Conditions

10-Day Weather Forecast

Almanac

Astronomy

Mar. 30, 2015 Rise Set
Actual Time
Civil Twilight
Nautical Twilight
Astronomical Twilight
Moon
Length of Visible Light
Length of Day
Tomorrow will be .
, % of the Moon is Illuminated

Today's Extremes

State Highs State Lows

Community

WunderPhotos

Upload Photos

1,809,582 photos uploaded!

WunderBlogs® & News

Nearby

Air Quality

  Air Quality AQ Index Pollutant
Not available.

Snow Depth

Station Depth Elevation

Earthquake Activity

City Distance Mag. Time & Date
Minimum magnitude displayed is 2.5.

Coastal Water Temperatures

Place Temperature

Stations

Nearby Weather Stations

Station Location Temp. Windchill Dew Point Humidity Wind Precip. Elev Updated Type